Station Historical Data
Daily Summary for March 21, 2017 Units:  English    Metric   Both
« Previous Day
Next Day »
Daily Weekly Monthly Yearly Custom
  High: Low: Average:
Temperature: 45.8 °F 32.9 °F 38.8 °F
Dew Point: 37.1 °F 23.5 °F 31.3 °F
Humidity: 85% 51% 75%
Wind Speed: 18.0mph 0.0mph 5.1mph
Wind Gust: 23.0mph - -
Wind- - WSW
Pressure: 30.07 in 29.92 in -
Precipitation: 0.00 in    
Historical Graphs
 
 
Tabular Data for March 21, 2017
Time Temperature Dew Point Pressure Wind Wind Speed Wind Gust Humidity Rainfall Rate (Hourly)
00:04 37.7 °F 31.1 °F 30.02 in Calm   2.0 mph 77% 0.00 in
00:09 37.7 °F 31.5 °F 30.02 in Calm   2.0 mph 78% 0.00 in
00:14 37.6 °F 31.4 °F 30.02 in Calm     78% 0.00 in
00:19 37.5 °F 31.3 °F 30.02 in Calm     78% 0.00 in
00:24 37.5 °F 31.3 °F 30.02 in Calm     78% 0.00 in
00:29 37.4 °F 31.2 °F 30.01 in Calm     78% 0.00 in
00:34 37.3 °F 31.4 °F 30.01 in Calm     79% 0.00 in
00:39 37.2 °F 31.3 °F 30.01 in Calm     79% 0.00 in
00:44 37.2 °F 31.3 °F 30.01 in Calm     79% 0.00 in
00:49 37.3 °F 31.4 °F 30.01 in Calm     79% 0.00 in
00:54 37.2 °F 31.3 °F 30.01 in Calm     79% 0.00 in
00:59 37.1 °F 31.2 °F 30.01 in Calm     79% 0.00 in
01:04 36.9 °F 31.0 °F 30.01 in Calm     79% 0.00 in
01:09 36.7 °F 30.8 °F 30.01 in Calm     79% 0.00 in
01:14 36.4 °F 30.8 °F 30.01 in Calm     80% 0.00 in
01:19 36.1 °F 30.5 °F 30.01 in Calm     80% 0.00 in
01:24 35.9 °F 30.6 °F 30.01 in Calm     81% 0.00 in
01:29 35.7 °F 30.4 °F 30.01 in Calm     81% 0.00 in
01:34 35.5 °F 30.2 °F 30.01 in Calm     81% 0.00 in
01:39 35.4 °F 30.1 °F 30.01 in Calm     81% 0.00 in
01:44 35.2 °F 30.3 °F 30.01 in Calm     82% 0.00 in
01:49 35.0 °F 30.1 °F 30.01 in Calm     82% 0.00 in
01:54 35.1 °F 30.2 °F 30.01 in Calm     82% 0.00 in
01:59 35.2 °F 30.3 °F 30.01 in Calm     82% 0.00 in
02:04 35.1 °F 30.2 °F 30.01 in Calm     82% 0.00 in
02:09 35.0 °F 30.1 °F 30.00 in Calm     82% 0.00 in
02:19 35.0 °F 30.4 °F 30.00 in Calm     83% 0.00 in
02:24 35.1 °F 30.5 °F 30.00 in Calm     83% 0.00 in
02:29 35.1 °F 30.5 °F 30.00 in Calm     83% 0.00 in
02:34 35.2 °F 30.6 °F 30.00 in Calm     83% 0.00 in
02:39 35.1 °F 30.5 °F 30.00 in Calm     83% 0.00 in
02:44 35.1 °F 30.5 °F 30.00 in Calm     83% 0.00 in
02:49 35.2 °F 30.6 °F 30.00 in Calm     83% 0.00 in
02:54 35.1 °F 30.5 °F 30.00 in Calm     83% 0.00 in
02:59 35.1 °F 30.5 °F 30.00 in Calm     83% 0.00 in
03:04 35.4 °F 30.8 °F 30.00 in Calm     83% 0.00 in
03:09 35.5 °F 30.8 °F 30.00 in Calm     83% 0.00 in
03:14 35.6 °F 30.9 °F 30.00 in Calm     83% 0.00 in
03:19 35.7 °F 30.7 °F 30.00 in Calm     82% 0.00 in
03:24 35.7 °F 30.7 °F 30.00 in Calm     82% 0.00 in
03:29 35.9 °F 30.9 °F 30.00 in Calm     82% 0.00 in
03:34 35.9 °F 30.9 °F 30.00 in Calm     82% 0.00 in
03:39 35.9 °F 30.9 °F 30.00 in Calm     82% 0.00 in
03:44 36.0 °F 31.0 °F 30.00 in Calm     82% 0.00 in
03:49 36.1 °F 31.1 °F 30.00 in Calm     82% 0.00 in
03:54 36.1 °F 31.1 °F 30.00 in Calm     82% 0.00 in
03:59 36.1 °F 31.1 °F 30.00 in Calm     82% 0.00 in
04:04 36.2 °F 31.2 °F 30.00 in Calm     82% 0.00 in
04:09 36.2 °F 30.9 °F 30.00 in Calm     81% 0.00 in
04:14 36.3 °F 31.0 °F 30.00 in Calm     81% 0.00 in
04:19 36.2 °F 30.9 °F 30.00 in Calm     81% 0.00 in
04:24 36.2 °F 30.9 °F 30.00 in Calm     81% 0.00 in
04:29 36.3 °F 31.0 °F 29.99 in Calm     81% 0.00 in
04:34 36.4 °F 31.1 °F 29.99 in South 3.0 mph 3.0 mph 81% 0.00 in
04:39 36.4 °F 31.1 °F 29.99 in SSW 2.0 mph 3.0 mph 81% 0.00 in
04:44 36.4 °F 31.1 °F 29.99 in Calm   2.0 mph 81% 0.00 in
04:49 36.4 °F 31.1 °F 29.98 in Calm     81% 0.00 in
04:54 36.4 °F 31.1 °F 29.98 in SW 1.0 mph 5.0 mph 81% 0.00 in
04:59 36.4 °F 31.1 °F 29.99 in Calm   3.0 mph 81% 0.00 in
05:04 36.4 °F 31.1 °F 29.98 in SW 1.0 mph 4.0 mph 81% 0.00 in
05:09 36.3 °F 31.0 °F 29.98 in SW 1.0 mph 4.0 mph 81% 0.00 in
05:14 36.4 °F 31.1 °F 29.98 in SW 1.0 mph 4.0 mph 81% 0.00 in
05:19 36.3 °F 31.0 °F 29.98 in SW 1.0 mph 3.0 mph 81% 0.00 in
05:24 36.3 °F 31.0 °F 29.98 in SW 1.0 mph 4.0 mph 81% 0.00 in
05:29 36.2 °F 30.9 °F 29.98 in SSW 2.0 mph 4.0 mph 81% 0.00 in
05:34 36.2 °F 30.9 °F 29.98 in SW 2.0 mph 4.0 mph 81% 0.00 in
05:39 36.2 °F 31.2 °F 29.98 in SW 2.0 mph 4.0 mph 82% 0.00 in
05:44 36.1 °F 31.1 °F 29.98 in SW 1.0 mph 4.0 mph 82% 0.00 in
05:49 36.1 °F 31.1 °F 29.98 in Calm   4.0 mph 82% 0.00 in
05:54 36.1 °F 31.1 °F 29.98 in SSW 2.0 mph 4.0 mph 82% 0.00 in
05:59 36.1 °F 31.1 °F 29.98 in SW 3.0 mph 5.0 mph 82% 0.00 in
06:04 36.0 °F 31.0 °F 29.98 in SW 2.0 mph 5.0 mph 82% 0.00 in
06:09 36.0 °F 31.0 °F 29.98 in SW 1.0 mph 3.0 mph 82% 0.00 in
06:14 36.0 °F 31.0 °F 29.98 in WSW 1.0 mph 4.0 mph 82% 0.00 in
06:19 36.1 °F 31.1 °F 29.98 in Calm   4.0 mph 82% 0.00 in
06:24 36.1 °F 31.1 °F 29.98 in SW 1.0 mph 5.0 mph 82% 0.00 in
06:29 36.1 °F 31.1 °F 29.98 in SSW 3.0 mph 5.0 mph 82% 0.00 in
06:34 36.2 °F 31.2 °F 29.98 in WSW 3.0 mph 6.0 mph 82% 0.00 in
06:39 36.2 °F 31.2 °F 29.98 in WSW 3.0 mph 8.0 mph 82% 0.00 in
06:44 36.3 °F 31.3 °F 29.98 in WSW 3.0 mph 8.0 mph 82% 0.00 in
06:49 36.3 °F 31.3 °F 29.98 in WSW 2.0 mph 5.0 mph 82% 0.00 in
06:54 36.2 °F 31.2 °F 29.98 in SW 4.0 mph 5.0 mph 82% 0.00 in
06:59 36.2 °F 31.2 °F 29.98 in WSW 2.0 mph 5.0 mph 82% 0.00 in
07:04 36.2 °F 31.2 °F 29.99 in WSW 2.0 mph 5.0 mph 82% 0.00 in
07:09 36.2 °F 31.2 °F 29.99 in WSW 3.0 mph 5.0 mph 82% 0.00 in
07:14 36.3 °F 31.3 °F 29.99 in WSW 3.0 mph 5.0 mph 82% 0.00 in
07:19 36.3 °F 31.3 °F 29.99 in WSW 3.0 mph 6.0 mph 82% 0.00 in
07:24 36.3 °F 31.3 °F 29.99 in WSW 2.0 mph 5.0 mph 82% 0.00 in
07:29 36.4 °F 31.4 °F 29.99 in WSW 2.0 mph 5.0 mph 82% 0.00 in
07:34 36.4 °F 31.4 °F 29.99 in WSW 3.0 mph 7.0 mph 82% 0.00 in
07:39 36.4 °F 31.4 °F 29.99 in WSW 3.0 mph 4.0 mph 82% 0.00 in
07:44 36.4 °F 31.4 °F 29.99 in WSW 2.0 mph 4.0 mph 82% 0.00 in
07:49 36.3 °F 31.6 °F 29.99 in WSW 2.0 mph 4.0 mph 83% 0.00 in
07:54 36.3 °F 31.6 °F 29.99 in SW 2.0 mph 4.0 mph 83% 0.00 in
07:59 36.3 °F 31.6 °F 29.99 in SW 2.0 mph 5.0 mph 83% 0.00 in
08:04 36.1 °F 31.4 °F 29.99 in SW 2.0 mph 5.0 mph 83% 0.00 in
08:09 36.0 °F 31.3 °F 29.99 in WSW 5.0 mph 5.0 mph 83% 0.00 in
08:14 36.0 °F 31.6 °F 30.00 in WSW 4.0 mph 5.0 mph 84% 0.00 in
08:29 36.0 °F 31.6 °F 30.00 in SW 3.0 mph 4.0 mph 84% 0.00 in
08:34 36.1 °F 32.0 °F 29.99 in SW 3.0 mph 5.0 mph 85% 0.00 in
08:39 36.3 °F 32.2 °F 30.00 in SW 4.0 mph 4.0 mph 85% 0.00 in
08:44 36.4 °F 32.0 °F 29.99 in SW 2.0 mph 4.0 mph 84% 0.00 in
08:49 36.5 °F 32.1 °F 29.99 in SW 3.0 mph 6.0 mph 84% 0.00 in
08:54 36.6 °F 32.2 °F 29.99 in SW 3.0 mph 6.0 mph 84% 0.00 in
08:59 36.6 °F 32.2 °F 30.00 in SW 3.0 mph 6.0 mph 84% 0.00 in
09:04 36.4 °F 32.0 °F 30.00 in SW 3.0 mph 6.0 mph 84% 0.00 in
09:09 36.9 °F 32.8 °F 29.99 in SW 3.0 mph 5.0 mph 85% 0.00 in
09:14 37.5 °F 33.1 °F 29.99 in WSW 2.0 mph 5.0 mph 84% 0.00 in
09:24 38.2 °F 33.2 °F 30.00 in SW 2.0 mph 5.0 mph 82% 0.00 in
09:29 38.5 °F 33.5 °F 29.99 in Calm   7.0 mph 82% 0.00 in
09:34 38.8 °F 33.5 °F 29.99 in SW 3.0 mph 7.0 mph 81% 0.00 in
09:39 39.0 °F 33.7 °F 29.99 in WSW 2.0 mph 6.0 mph 81% 0.00 in
09:44 39.3 °F 34.0 °F 30.00 in WSW 2.0 mph 7.0 mph 81% 0.00 in
09:49 39.7 °F 34.3 °F 30.00 in SW 4.0 mph 7.0 mph 81% 0.00 in
09:54 39.7 °F 34.0 °F 30.00 in SW 4.0 mph 7.0 mph 80% 0.00 in
09:59 39.8 °F 34.1 °F 29.99 in SW 4.0 mph 9.0 mph 80% 0.00 in
10:04 39.7 °F 34.0 °F 29.99 in SW 5.0 mph 11.0 mph 80% 0.00 in
10:09 40.0 °F 34.3 °F 30.00 in SW 5.0 mph 11.0 mph 80% 0.00 in
10:14 40.3 °F 34.6 °F 29.99 in SSW 3.0 mph 9.0 mph 80% 0.00 in
10:19 40.4 °F 34.4 °F 30.00 in SW 5.0 mph 9.0 mph 79% 0.00 in
10:24 40.6 °F 34.9 °F 30.00 in SW 5.0 mph 9.0 mph 80% 0.00 in
10:29 40.5 °F 34.5 °F 30.00 in West 4.0 mph 11.0 mph 79% 0.00 in
10:34 40.5 °F 34.8 °F 30.00 in SSW 5.0 mph 11.0 mph 80% 0.00 in
10:39 40.5 °F 34.5 °F 30.00 in SW 6.0 mph 11.0 mph 79% 0.00 in
10:44 40.8 °F 35.1 °F 30.00 in SSW 9.0 mph 10.0 mph 80% 0.00 in
10:49 40.7 °F 34.7 °F 30.00 in SW 6.0 mph 10.0 mph 79% 0.00 in
10:54 41.1 °F 35.1 °F 30.00 in SW 6.0 mph 10.0 mph 79% 0.00 in
10:59 41.2 °F 35.2 °F 30.00 in SW 5.0 mph 9.0 mph 79% 0.00 in
11:04 41.5 °F 35.2 °F 30.00 in SW 4.0 mph 9.0 mph 78% 0.00 in
11:09 42.1 °F 35.7 °F 30.00 in WSW 5.0 mph 9.0 mph 78% 0.00 in
11:14 42.5 °F 35.5 °F 30.00 in WSW 5.0 mph 10.0 mph 76% 0.00 in
11:19 42.6 °F 35.6 °F 29.99 in SW 6.0 mph 12.0 mph 76% 0.00 in
11:24 42.7 °F 35.7 °F 30.00 in WSW 7.0 mph 13.0 mph 76% 0.00 in
11:29 42.4 °F 35.4 °F 30.00 in WSW 8.0 mph 16.0 mph 76% 0.00 in
11:34 42.7 °F 35.7 °F 30.00 in WSW 8.0 mph 16.0 mph 76% 0.00 in
11:39 42.8 °F 35.8 °F 30.00 in WSW 9.0 mph 14.0 mph 76% 0.00 in
11:44 43.0 °F 35.6 °F 30.00 in SW 7.0 mph 12.0 mph 75% 0.00 in
11:49 42.8 °F 35.4 °F 30.00 in WSW 8.0 mph 15.0 mph 75% 0.00 in
11:54 42.3 °F 35.3 °F 30.00 in WSW 8.0 mph 15.0 mph 76% 0.00 in
11:59 42.3 °F 35.6 °F 30.00 in SW 9.0 mph 15.0 mph 77% 0.00 in
12:04 42.4 °F 35.7 °F 30.00 in WSW 8.0 mph 13.0 mph 77% 0.00 in
12:09 42.7 °F 35.7 °F 30.00 in WNW 12.0 mph 16.0 mph 76% 0.00 in
12:14 42.7 °F 35.7 °F 29.99 in SW 7.0 mph 15.0 mph 76% 0.00 in
12:19 42.9 °F 35.9 °F 29.99 in WSW 10.0 mph 13.0 mph 76% 0.00 in
12:24 42.9 °F 36.2 °F 29.99 in SW 8.0 mph 15.0 mph 77% 0.00 in
12:29 43.4 °F 36.3 °F 30.00 in SW 8.0 mph 15.0 mph 76% 0.00 in
12:34 43.3 °F 36.2 °F 30.00 in SW 8.0 mph 16.0 mph 76% 0.00 in
12:39 43.5 °F 36.1 °F 30.00 in WSW 8.0 mph 16.0 mph 75% 0.00 in
12:44 43.4 °F 36.0 °F 30.00 in WSW 8.0 mph 18.0 mph 75% 0.00 in
12:49 43.8 °F 36.7 °F 29.99 in SW 6.0 mph 15.0 mph 76% 0.00 in
12:54 44.2 °F 37.1 °F 30.00 in WSW 7.0 mph 15.0 mph 76% 0.00 in
12:59 43.9 °F 36.1 °F 29.99 in WSW 7.0 mph 16.0 mph 74% 0.00 in
13:04 43.5 °F 36.1 °F 29.99 in WSW 7.0 mph 14.0 mph 75% 0.00 in
13:09 43.9 °F 36.8 °F 29.99 in SW 7.0 mph 13.0 mph 76% 0.00 in
13:14 44.0 °F 36.2 °F 30.00 in SW 11.0 mph 15.0 mph 74% 0.00 in
13:19 43.0 °F 36.0 °F 29.99 in WSW 13.0 mph 17.0 mph 76% 0.00 in
13:24 43.8 °F 36.7 °F 29.99 in WNW 7.0 mph 15.0 mph 76% 0.00 in
13:29 43.5 °F 36.1 °F 29.99 in WSW 9.0 mph 17.0 mph 75% 0.00 in
13:34 43.1 °F 35.4 °F 29.99 in WSW 10.0 mph 17.0 mph 74% 0.00 in
13:39 44.0 °F 36.6 °F 29.98 in WSW 9.0 mph 17.0 mph 75% 0.00 in
13:44 43.6 °F 35.9 °F 29.98 in WSW 8.0 mph 16.0 mph 74% 0.00 in
13:49 44.4 °F 35.9 °F 29.98 in WSW 8.0 mph 16.0 mph 72% 0.00 in
13:54 44.7 °F 36.2 °F 29.98 in WSW 7.0 mph 17.0 mph 72% 0.00 in
13:59 44.3 °F 35.8 °F 29.98 in SW 9.0 mph 19.0 mph 72% 0.00 in
14:04 43.9 °F 35.1 °F 29.97 in WSW 12.0 mph 21.0 mph 71% 0.00 in
14:09 44.0 °F 35.2 °F 29.97 in SW 13.0 mph 18.0 mph 71% 0.00 in
14:14 44.0 °F 34.8 °F 29.97 in SW 7.0 mph 18.0 mph 70% 0.00 in
14:19 44.8 °F 36.0 °F 29.97 in SW 5.0 mph 14.0 mph 71% 0.00 in
14:24 45.6 °F 36.7 °F 29.96 in South 9.0 mph 12.0 mph 71% 0.00 in
14:29 45.5 °F 35.2 °F 29.96 in West 5.0 mph 18.0 mph 67% 0.00 in
14:34 45.4 °F 34.3 °F 29.96 in WSW 8.0 mph 18.0 mph 65% 0.00 in
14:39 45.6 °F 34.5 °F 29.96 in WSW 8.0 mph 16.0 mph 65% 0.00 in
14:44 45.2 °F 33.3 °F 29.95 in WSW 8.0 mph 16.0 mph 63% 0.00 in
14:49 45.8 °F 34.3 °F 29.95 in WSW 8.0 mph 16.0 mph 64% 0.00 in
14:59 45.6 °F 32.5 °F 29.95 in WSW 14.0 mph 17.0 mph 60% 0.00 in
15:04 45.1 °F 30.8 °F 29.95 in WSW 9.0 mph 19.0 mph 57% 0.00 in
15:09 45.1 °F 29.9 °F 29.95 in West 8.0 mph 19.0 mph 55% 0.00 in
15:14 45.6 °F 29.9 °F 29.94 in West 8.0 mph 16.0 mph 54% 0.00 in
15:19 45.5 °F 28.4 °F 29.94 in West 13.0 mph 19.0 mph 51% 0.00 in
15:24 45.5 °F 29.3 °F 29.94 in WSW 9.0 mph 16.0 mph 53% 0.00 in
15:29 45.1 °F 28.0 °F 29.94 in West 6.0 mph 20.0 mph 51% 0.00 in
15:34 45.5 °F 29.8 °F 29.94 in WSW 10.0 mph 20.0 mph 54% 0.00 in
15:39 45.4 °F 28.8 °F 29.93 in WSW 9.0 mph 19.0 mph 52% 0.00 in
15:44 45.3 °F 29.6 °F 29.93 in WSW 9.0 mph 16.0 mph 54% 0.00 in
15:49 44.9 °F 29.7 °F 29.93 in WSW 9.0 mph 17.0 mph 55% 0.00 in
15:54 44.9 °F 29.2 °F 29.93 in WSW 10.0 mph 19.0 mph 54% 0.00 in
15:59 45.0 °F 28.9 °F 29.93 in SSW 9.0 mph 17.0 mph 53% 0.00 in
16:04 45.4 °F 29.7 °F 29.93 in WSW 9.0 mph 17.0 mph 54% 0.00 in
16:09 45.0 °F 28.4 °F 29.93 in SW 9.0 mph 21.0 mph 52% 0.00 in
16:14 44.6 °F 29.4 °F 29.93 in West 6.0 mph 16.0 mph 55% 0.00 in
16:19 44.8 °F 29.2 °F 29.93 in WSW 11.0 mph 17.0 mph 54% 0.00 in
16:24 44.8 °F 29.6 °F 29.92 in West 18.0 mph 18.0 mph 55% 0.00 in
16:29 44.5 °F 31.5 °F 29.93 in SW 11.0 mph 18.0 mph 60% 0.00 in
16:34 44.7 °F 33.6 °F 29.92 in WSW 10.0 mph 18.0 mph 65% 0.00 in
16:39 44.2 °F 34.3 °F 29.92 in WSW 9.0 mph 18.0 mph 68% 0.00 in
16:44 43.8 °F 35.0 °F 29.92 in WSW 10.0 mph 20.0 mph 71% 0.00 in
16:49 43.6 °F 34.8 °F 29.92 in West 12.0 mph 19.0 mph 71% 0.00 in
16:54 43.4 °F 35.3 °F 29.92 in SW 12.0 mph 17.0 mph 73% 0.00 in
16:59 43.5 °F 35.4 °F 29.92 in SW 10.0 mph 20.0 mph 73% 0.00 in
17:04 43.4 °F 35.3 °F 29.92 in WSW 10.0 mph 19.0 mph 73% 0.00 in
17:09 43.0 °F 34.9 °F 29.92 in WSW 11.0 mph 20.0 mph 73% 0.00 in
17:14 42.7 °F 35.0 °F 29.92 in WSW 11.0 mph 23.0 mph 74% 0.00 in
17:19 42.4 °F 35.0 °F 29.92 in WSW 10.0 mph 23.0 mph 75% 0.00 in
17:24 42.5 °F 35.1 °F 29.92 in WSW 7.0 mph 17.0 mph 75% 0.00 in
17:29 42.6 °F 34.9 °F 29.92 in WSW 13.0 mph 20.0 mph 74% 0.00 in
17:39 42.2 °F 34.8 °F 29.92 in WSW 9.0 mph 18.0 mph 75% 0.00 in
17:44 42.0 °F 34.6 °F 29.92 in SW 10.0 mph 15.0 mph 75% 0.00 in
17:49 41.9 °F 34.9 °F 29.93 in West 8.0 mph 15.0 mph 76% 0.00 in
17:54 41.8 °F 34.8 °F 29.93 in WSW 4.0 mph 17.0 mph 76% 0.00 in
17:59 41.3 °F 34.6 °F 29.93 in WSW 7.0 mph 13.0 mph 77% 0.00 in
18:04 40.7 °F 34.0 °F 29.93 in WSW 11.0 mph 14.0 mph 77% 0.00 in
18:09 40.6 °F 34.3 °F 29.94 in WSW 8.0 mph 17.0 mph 78% 0.00 in
18:14 40.4 °F 34.1 °F 29.93 in WSW 9.0 mph 18.0 mph 78% 0.00 in
18:19 40.3 °F 34.3 °F 29.94 in WSW 9.0 mph 18.0 mph 79% 0.00 in
18:24 39.7 °F 34.0 °F 29.94 in WSW 8.0 mph 16.0 mph 80% 0.00 in
18:29 39.5 °F 33.8 °F 29.94 in WSW 8.0 mph 16.0 mph 80% 0.00 in
18:34 39.4 °F 33.7 °F 29.94 in WSW 9.0 mph 16.0 mph 80% 0.00 in
18:39 39.3 °F 34.0 °F 29.94 in WSW 5.0 mph 13.0 mph 81% 0.00 in
18:44 39.1 °F 33.8 °F 29.95 in West 6.0 mph 13.0 mph 81% 0.00 in
18:49 38.9 °F 33.6 °F 29.95 in WNW 4.0 mph 9.0 mph 81% 0.00 in
18:54 39.0 °F 33.7 °F 29.95 in West 6.0 mph 10.0 mph 81% 0.00 in
18:59 39.1 °F 33.8 °F 29.96 in WSW 4.0 mph 8.0 mph 81% 0.00 in
19:04 38.9 °F 33.6 °F 29.96 in West 6.0 mph 9.0 mph 81% 0.00 in
19:09 38.8 °F 33.5 °F 29.96 in WSW 3.0 mph 9.0 mph 81% 0.00 in
19:14 38.8 °F 33.5 °F 29.96 in WSW 3.0 mph 7.0 mph 81% 0.00 in
19:19 39.2 °F 32.9 °F 29.96 in WNW 4.0 mph 14.0 mph 78% 0.00 in
19:24 40.9 °F 29.7 °F 29.96 in WNW 7.0 mph 14.0 mph 64% 0.00 in
19:29 41.4 °F 28.5 °F 29.97 in WNW 8.0 mph 15.0 mph 60% 0.00 in
19:34 41.5 °F 28.6 °F 29.97 in NW 10.0 mph 13.0 mph 60% 0.00 in
19:39 41.2 °F 28.4 °F 29.97 in NNW 4.0 mph 14.0 mph 60% 0.00 in
19:44 40.9 °F 28.5 °F 29.97 in NW 7.0 mph 22.0 mph 61% 0.00 in
19:49 40.6 °F 28.2 °F 29.97 in NW 7.0 mph 22.0 mph 61% 0.00 in
19:54 40.4 °F 28.4 °F 29.97 in NNW 7.0 mph 18.0 mph 62% 0.00 in
19:59 40.1 °F 28.1 °F 29.98 in NW 3.0 mph 16.0 mph 62% 0.00 in
20:04 39.8 °F 28.2 °F 29.98 in NW 12.0 mph 16.0 mph 63% 0.00 in
20:09 39.6 °F 28.0 °F 29.98 in NW 4.0 mph 14.0 mph 63% 0.00 in
20:14 39.1 °F 27.6 °F 29.98 in NW 7.0 mph 15.0 mph 63% 0.00 in
20:19 38.9 °F 27.4 °F 29.99 in NW 7.0 mph 15.0 mph 63% 0.00 in
20:24 38.8 °F 26.9 °F 29.99 in NW 7.0 mph 15.0 mph 62% 0.00 in
20:29 38.6 °F 26.7 °F 30.00 in NW 7.0 mph 16.0 mph 62% 0.00 in
20:34 38.4 °F 26.5 °F 30.00 in NW 7.0 mph 16.0 mph 62% 0.00 in
20:39 38.2 °F 26.3 °F 30.00 in NW 6.0 mph 14.0 mph 62% 0.00 in
20:44 38.1 °F 26.2 °F 30.01 in NW 7.0 mph 14.0 mph 62% 0.00 in
20:49 37.9 °F 26.0 °F 30.01 in NW 13.0 mph 16.0 mph 62% 0.00 in
20:54 37.7 °F 25.8 °F 30.01 in West 6.0 mph 13.0 mph 62% 0.00 in
20:59 37.5 °F 26.0 °F 30.02 in WNW 5.0 mph 14.0 mph 63% 0.00 in
21:04 37.2 °F 25.8 °F 30.02 in NW 7.0 mph 13.0 mph 63% 0.00 in
21:09 36.9 °F 25.5 °F 30.02 in North 11.0 mph 17.0 mph 63% 0.00 in
21:14 36.6 °F 25.2 °F 30.02 in NW 12.0 mph 21.0 mph 63% 0.00 in
21:19 36.2 °F 24.8 °F 30.03 in NW 10.0 mph 21.0 mph 63% 0.00 in
21:24 35.8 °F 24.4 °F 30.03 in NW 8.0 mph 18.0 mph 63% 0.00 in
21:29 35.5 °F 24.1 °F 30.03 in NW 8.0 mph 19.0 mph 63% 0.00 in
21:34 35.2 °F 24.2 °F 30.03 in NW 8.0 mph 19.0 mph 64% 0.00 in
21:39 35.0 °F 24.0 °F 30.03 in NW 7.0 mph 15.0 mph 64% 0.00 in
21:44 34.7 °F 23.8 °F 30.03 in NW 3.0 mph 10.0 mph 64% 0.00 in
21:49 34.4 °F 23.5 °F 30.03 in WNW 11.0 mph 17.0 mph 64% 0.00 in
21:54 34.5 °F 23.6 °F 30.03 in WNW 7.0 mph 18.0 mph 64% 0.00 in
21:59 34.4 °F 23.5 °F 30.03 in North 2.0 mph 12.0 mph 64% 0.00 in
22:04 34.1 °F 23.6 °F 30.03 in WNW 7.0 mph 10.0 mph 65% 0.00 in
22:09 34.0 °F 23.5 °F 30.04 in West 5.0 mph 18.0 mph 65% 0.00 in
22:14 33.9 °F 23.7 °F 30.04 in NW 8.0 mph 18.0 mph 66% 0.00 in
22:19 33.8 °F 23.6 °F 30.04 in WNW 9.0 mph 16.0 mph 66% 0.00 in
22:24 33.6 °F 23.8 °F 30.04 in NW 7.0 mph 16.0 mph 67% 0.00 in
22:29 33.5 °F 24.1 °F 30.04 in North 9.0 mph 15.0 mph 68% 0.00 in
22:34 33.4 °F 24.3 °F 30.05 in NW 4.0 mph 13.0 mph 69% 0.00 in
22:39 33.2 °F 24.1 °F 30.05 in NW 8.0 mph 14.0 mph 69% 0.00 in
22:44 33.3 °F 24.6 °F 30.05 in NW 9.0 mph 13.0 mph 70% 0.00 in
22:49 33.4 °F 24.7 °F 30.05 in NW 4.0 mph 12.0 mph 70% 0.00 in
22:54 33.5 °F 25.1 °F 30.05 in WNW 7.0 mph 14.0 mph 71% 0.00 in
22:59 33.6 °F 25.2 °F 30.05 in NW 7.0 mph 15.0 mph 71% 0.00 in
23:04 33.5 °F 25.1 °F 30.05 in NW 7.0 mph 16.0 mph 71% 0.00 in
23:09 33.5 °F 25.1 °F 30.05 in NW 7.0 mph 16.0 mph 71% 0.00 in
23:14 33.4 °F 25.0 °F 30.05 in NW 6.0 mph 16.0 mph 71% 0.00 in
23:19 33.4 °F 25.0 °F 30.06 in NNW 4.0 mph 12.0 mph 71% 0.00 in
23:24 33.5 °F 25.4 °F 30.06 in WNW 11.0 mph 14.0 mph 72% 0.00 in
23:29 33.7 °F 25.6 °F 30.06 in NW 6.0 mph 14.0 mph 72% 0.00 in
23:34 33.7 °F 25.6 °F 30.06 in West 11.0 mph 13.0 mph 72% 0.00 in
23:39 33.8 °F 25.7 °F 30.06 in WNW 8.0 mph 15.0 mph 72% 0.00 in
23:44 33.9 °F 25.8 °F 30.06 in NE 10.0 mph 16.0 mph 72% 0.00 in
23:49 33.6 °F 25.5 °F 30.07 in NNE 7.0 mph 15.0 mph 72% 0.00 in
23:54 33.2 °F 25.1 °F 30.07 in NNW 11.0 mph 13.0 mph 72% 0.00 in
23:59 32.9 °F 25.2 °F 30.07 in NNW 7.0 mph 16.0 mph 73% 0.00 in
Buffalo, New York, USA
Compliments of Weather Underground - 2.5 mb